Terminal Aerodrome Forecast
Issued by NWS Louisville, KY

Home | Current Version | Previous Version | Text Only | Print | Product List | Glossary On
Versions: 1 2 3 4 5 6 7 8 9 10 11 12 13 14 15 16 17 18 19 20 21
000
FTUS43 KLMK 222322
TAFLEX
TAF
KLEX 222322Z 2300/2324 16011KT 6SM -SHRA SCT015 OVC025
      TEMPO 2300/2301 2SM SHRA BKN015 OVC025
     FM230200 16011KT P6SM SCT015 OVC020
     FM231100 20012G20KT P6SM -SHRA OVC015
     FM231600 22013G22KT P6SM -SHRA VCTS SCT025CB OVC030
     FM232100 22008KT 4SM SHRA VCTS BKN020CB OVC025=

USA.gov is the U.S. government's official web portal to all federal, state and local government web resources and services.